Terminal Aerodrome Forecast
Issued by NWS Corpus Christi, TX

Home | Current Version | Previous Version | Text Only | Print | Product List | Glossary On
Versions: 1 2 3 4 5 6 7 8 9 10 11 12 13
000
FTUS44 KCRP 311700
TAFCRP
TAF
KCRP 311740Z 3118/0118 16012G18KT P6SM SCT030 BKN250
     FM312000 13015G20KT P6SM BKN050
     FM010300 17008KT P6SM SCT020 BKN100
      TEMPO 0110/0113 BKN015 OVC100
     FM011500 VRB03KT P6SM VCSH BKN030 OVC100 PROB30 0115/0118 3SM
      TSRA OVC025CB=

USA.gov is the U.S. government's official web portal to all federal, state and local government web resources and services.